Terminal Aerodrome Forecast
Issued by NWS

Current Version | Previous Version | Graphics & Text | Print | Product List | Glossary On
Versions: 1 2 3 4 5 6 7 8 9 10 11 12 13 14 15 16 17 18 19 20 21
000
FTUS41 KILN 040300 AAB
TAFLUK
TAF AMD
KLUK 040316Z 0403/0424 25005KT P6SM -RA OVC011
     FM040900 32008KT 5SM -RA BR OVC010
     FM041500 33007KT 3SM BR OVC008
     FM041800 33012KT 1 1/2SM -SN BR OVC004=

USA.gov is the U.S. government's official web portal to all federal, state and local government web resources and services.